sensor_id;sensor_type;location;lat;lon;timestamp;P1;durP1;ratioP1;P2;durP2;ratioP2
18435;SDS011;9346;52.006;4.720;2022-12-26T00:01:45;37.83;;;15.63;;
18435;SDS011;9346;52.006;4.720;2022-12-26T00:04:13;32.80;;;14.50;;
18435;SDS011;9346;52.006;4.720;2022-12-26T00:06:43;43.17;;;15.83;;
18435;SDS011;9346;52.006;4.720;2022-12-26T00:09:10;45.03;;;15.53;;
18435;SDS011;9346;52.006;4.720;2022-12-26T00:11:37;58.43;;;17.37;;
18435;SDS011;9346;52.006;4.720;2022-12-26T00:14:05;51.30;;;16.93;;
18435;SDS011;9346;52.006;4.720;2022-12-26T00:16:33;37.47;;;16.27;;
18435;SDS011;9346;52.006;4.720;2022-12-26T00:19:00;34.07;;;15.40;;
18435;SDS011;9346;52.006;4.720;2022-12-26T00:21:29;45.83;;;17.60;;
18435;SDS011;9346;52.006;4.720;2022-12-26T00:23:59;42.17;;;16.13;;
18435;SDS011;9346;52.006;4.720;2022-12-26T00:26:28;40.73;;;17.53;;
18435;SDS011;9346;52.006;4.720;2022-12-26T00:28:56;42.03;;;17.10;;
18435;SDS011;9346;52.006;4.720;2022-12-26T00:31:24;43.30;;;17.33;;
18435;SDS011;9346;52.006;4.720;2022-12-26T00:33:53;47.00;;;18.07;;
18435;SDS011;9346;52.006;4.720;2022-12-26T00:36:21;47.07;;;17.93;;
18435;SDS011;9346;52.006;4.720;2022-12-26T00:38:49;46.03;;;17.33;;
18435;SDS011;9346;52.006;4.720;2022-12-26T00:41:19;42.80;;;17.30;;
18435;SDS011;9346;52.006;4.720;2022-12-26T00:43:46;39.67;;;16.83;;
18435;SDS011;9346;52.006;4.720;2022-12-26T00:46:14;41.30;;;16.80;;
18435;SDS011;9346;52.006;4.720;2022-12-26T00:48:42;40.37;;;17.07;;
18435;SDS011;9346;52.006;4.720;2022-12-26T00:51:10;45.03;;;18.47;;
18435;SDS011;9346;52.006;4.720;2022-12-26T00:53:37;44.80;;;18.93;;
18435;SDS011;9346;52.006;4.720;2022-12-26T00:56:05;36.93;;;17.10;;
18435;SDS011;9346;52.006;4.720;2022-12-26T00:58:34;40.00;;;18.30;;
18435;SDS011;9346;52.006;4.720;2022-12-26T01:01:05;41.53;;;17.13;;
18435;SDS011;9346;52.006;4.720;2022-12-26T01:03:34;39.17;;;17.10;;
18435;SDS011;9346;52.006;4.720;2022-12-26T01:06:01;37.70;;;17.33;;
18435;SDS011;9346;52.006;4.720;2022-12-26T01:08:32;41.70;;;18.63;;
18435;SDS011;9346;52.006;4.720;2022-12-26T01:11:01;42.47;;;18.30;;
18435;SDS011;9346;52.006;4.720;2022-12-26T01:13:31;50.70;;;19.47;;
18435;SDS011;9346;52.006;4.720;2022-12-26T01:16:00;38.30;;;17.63;;
18435;SDS011;9346;52.006;4.720;2022-12-26T01:18:27;39.97;;;17.63;;
18435;SDS011;9346;52.006;4.720;2022-12-26T01:20:57;37.03;;;16.13;;
18435;SDS011;9346;52.006;4.720;2022-12-26T01:23:25;40.47;;;17.80;;
18435;SDS011;9346;52.006;4.720;2022-12-26T01:25:52;40.80;;;17.97;;
18435;SDS011;9346;52.006;4.720;2022-12-26T01:28:19;41.67;;;16.77;;
18435;SDS011;9346;52.006;4.720;2022-12-26T01:30:46;40.47;;;17.67;;
18435;SDS011;9346;52.006;4.720;2022-12-26T01:33:15;38.53;;;16.87;;
18435;SDS011;9346;52.006;4.720;2022-12-26T01:35:51;32.77;;;15.10;;
18435;SDS011;9346;52.006;4.720;2022-12-26T01:38:18;35.10;;;16.37;;
18435;SDS011;9346;52.006;4.720;2022-12-26T01:40:46;37.60;;;15.80;;
18435;SDS011;9346;52.006;4.720;2022-12-26T01:43:45;36.60;;;16.33;;
18435;SDS011;9346;52.006;4.720;2022-12-26T01:46:21;30.60;;;15.67;;
18435;SDS011;9346;52.006;4.720;2022-12-26T01:48:53;36.60;;;15.17;;
18435;SDS011;9346;52.006;4.720;2022-12-26T01:51:22;31.17;;;14.43;;
18435;SDS011;9346;52.006;4.720;2022-12-26T01:53:53;35.70;;;14.97;;
18435;SDS011;9346;52.006;4.720;2022-12-26T01:56:24;39.60;;;15.87;;
18435;SDS011;9346;52.006;4.720;2022-12-26T01:58:58;41.03;;;16.60;;
18435;SDS011;9346;52.006;4.720;2022-12-26T02:01:30;34.00;;;15.57;;
18435;SDS011;9346;52.006;4.720;2022-12-26T02:04:03;38.10;;;14.63;;
18435;SDS011;9346;52.006;4.720;2022-12-26T02:06:49;28.93;;;15.10;;
18435;SDS011;9346;52.006;4.720;2022-12-26T02:09:16;29.60;;;14.47;;
18435;SDS011;9346;52.006;4.720;2022-12-26T02:11:46;33.50;;;14.17;;
18435;SDS011;9346;52.006;4.720;2022-12-26T02:14:17;37.20;;;14.53;;
18435;SDS011;9346;52.006;4.720;2022-12-26T02:16:44;30.70;;;13.03;;
18435;SDS011;9346;52.006;4.720;2022-12-26T02:19:17;23.30;;;13.20;;
18435;SDS011;9346;52.006;4.720;2022-12-26T02:22:01;30.43;;;13.73;;
18435;SDS011;9346;52.006;4.720;2022-12-26T02:27:47;32.40;;;13.47;;
18435;SDS011;9346;52.006;4.720;2022-12-26T02:30:33;30.73;;;13.67;;
18435;SDS011;9346;52.006;4.720;2022-12-26T02:33:13;32.10;;;14.77;;
18435;SDS011;9346;52.006;4.720;2022-12-26T02:36:03;32.90;;;14.40;;
18435;SDS011;9346;52.006;4.720;2022-12-26T02:38:52;26.17;;;13.43;;
18435;SDS011;9346;52.006;4.720;2022-12-26T02:41:33;29.37;;;13.20;;
18435;SDS011;9346;52.006;4.720;2022-12-26T02:44:11;36.13;;;16.00;;
18435;SDS011;9346;52.006;4.720;2022-12-26T02:47:05;28.90;;;14.37;;
18435;SDS011;9346;52.006;4.720;2022-12-26T02:49:42;29.97;;;15.43;;
18435;SDS011;9346;52.006;4.720;2022-12-26T02:52:43;39.73;;;16.13;;
18435;SDS011;9346;52.006;4.720;2022-12-26T02:55:40;25.00;;;14.47;;
18435;SDS011;9346;52.006;4.720;2022-12-26T02:58:43;31.83;;;15.73;;
18435;SDS011;9346;52.006;4.720;2022-12-26T03:01:37;30.73;;;15.80;;
18435;SDS011;9346;52.006;4.720;2022-12-26T03:04:25;36.43;;;17.23;;
18435;SDS011;9346;52.006;4.720;2022-12-26T03:07:15;32.53;;;17.23;;
18435;SDS011;9346;52.006;4.720;2022-12-26T03:10:04;35.03;;;17.03;;
18435;SDS011;9346;52.006;4.720;2022-12-26T03:12:57;39.50;;;16.93;;
18435;SDS011;9346;52.006;4.720;2022-12-26T03:15:38;32.63;;;16.93;;
18435;SDS011;9346;52.006;4.720;2022-12-26T03:18:26;35.43;;;16.37;;
18435;SDS011;9346;52.006;4.720;2022-12-26T03:20:58;35.93;;;16.43;;
18435;SDS011;9346;52.006;4.720;2022-12-26T03:23:26;41.50;;;18.40;;
18435;SDS011;9346;52.006;4.720;2022-12-26T03:25:56;44.07;;;17.43;;
18435;SDS011;9346;52.006;4.720;2022-12-26T03:28:44;34.40;;;16.30;;
18435;SDS011;9346;52.006;4.720;2022-12-26T03:31:13;37.37;;;17.17;;
18435;SDS011;9346;52.006;4.720;2022-12-26T03:33:41;33.27;;;16.83;;
18435;SDS011;9346;52.006;4.720;2022-12-26T03:36:30;31.87;;;15.97;;
18435;SDS011;9346;52.006;4.720;2022-12-26T03:39:07;32.73;;;15.63;;
18435;SDS011;9346;52.006;4.720;2022-12-26T03:41:46;30.73;;;15.27;;
18435;SDS011;9346;52.006;4.720;2022-12-26T03:44:38;28.87;;;13.93;;
18435;SDS011;9346;52.006;4.720;2022-12-26T03:47:32;26.60;;;14.00;;
18435;SDS011;9346;52.006;4.720;2022-12-26T03:50:23;24.23;;;11.93;;
18435;SDS011;9346;52.006;4.720;2022-12-26T03:53:19;30.20;;;13.07;;
18435;SDS011;9346;52.006;4.720;2022-12-26T03:56:07;21.57;;;12.10;;
18435;SDS011;9346;52.006;4.720;2022-12-26T03:58:58;18.53;;;11.43;;
18435;SDS011;9346;52.006;4.720;2022-12-26T04:01:48;22.27;;;10.67;;
18435;SDS011;9346;52.006;4.720;2022-12-26T04:04:40;26.23;;;12.17;;
18435;SDS011;9346;52.006;4.720;2022-12-26T04:07:27;22.23;;;10.90;;
18435;SDS011;9346;52.006;4.720;2022-12-26T04:10:16;17.90;;;9.80;;
18435;SDS011;9346;52.006;4.720;2022-12-26T04:13:04;23.57;;;11.33;;
18435;SDS011;9346;52.006;4.720;2022-12-26T04:15:57;23.10;;;8.70;;
18435;SDS011;9346;52.006;4.720;2022-12-26T04:18:44;17.27;;;8.40;;
18435;SDS011;9346;52.006;4.720;2022-12-26T04:21:33;19.03;;;9.03;;
18435;SDS011;9346;52.006;4.720;2022-12-26T04:24:26;16.23;;;8.37;;
18435;SDS011;9346;52.006;4.720;2022-12-26T04:27:15;14.67;;;8.13;;
18435;SDS011;9346;52.006;4.720;2022-12-26T04:30:03;15.43;;;7.90;;
18435;SDS011;9346;52.006;4.720;2022-12-26T04:32:48;16.47;;;7.83;;
18435;SDS011;9346;52.006;4.720;2022-12-26T04:35:39;16.60;;;7.37;;
18435;SDS011;9346;52.006;4.720;2022-12-26T04:38:28;21.07;;;9.07;;
18435;SDS011;9346;52.006;4.720;2022-12-26T04:41:17;22.07;;;8.03;;
18435;SDS011;9346;52.006;4.720;2022-12-26T04:44:05;14.23;;;6.90;;
18435;SDS011;9346;52.006;4.720;2022-12-26T04:46:34;18.50;;;6.93;;
18435;SDS011;9346;52.006;4.720;2022-12-26T04:49:04;12.43;;;6.50;;
18435;SDS011;9346;52.006;4.720;2022-12-26T04:51:50;12.87;;;6.30;;
18435;SDS011;9346;52.006;4.720;2022-12-26T04:54:17;11.83;;;5.97;;
18435;SDS011;9346;52.006;4.720;2022-12-26T04:56:44;12.10;;;5.60;;
18435;SDS011;9346;52.006;4.720;2022-12-26T04:59:13;10.30;;;4.63;;
18435;SDS011;9346;52.006;4.720;2022-12-26T05:01:41;9.73;;;5.93;;
18435;SDS011;9346;52.006;4.720;2022-12-26T05:04:25;16.97;;;6.03;;
18435;SDS011;9346;52.006;4.720;2022-12-26T05:07:11;11.63;;;5.23;;
18435;SDS011;9346;52.006;4.720;2022-12-26T05:10:00;13.47;;;4.97;;
18435;SDS011;9346;52.006;4.720;2022-12-26T05:12:27;11.23;;;5.10;;
18435;SDS011;9346;52.006;4.720;2022-12-26T05:14:56;8.93;;;4.33;;
18435;SDS011;9346;52.006;4.720;2022-12-26T05:17:23;8.17;;;4.93;;
18435;SDS011;9346;52.006;4.720;2022-12-26T05:20:08;11.50;;;5.20;;
18435;SDS011;9346;52.006;4.720;2022-12-26T05:22:54;6.73;;;4.00;;
18435;SDS011;9346;52.006;4.720;2022-12-26T05:25:39;9.63;;;4.13;;
18435;SDS011;9346;52.006;4.720;2022-12-26T05:28:37;8.37;;;4.60;;
18435;SDS011;9346;52.006;4.720;2022-12-26T05:31:09;7.33;;;5.00;;
18435;SDS011;9346;52.006;4.720;2022-12-26T05:33:37;9.10;;;4.50;;
18435;SDS011;9346;52.006;4.720;2022-12-26T05:36:21;8.33;;;4.20;;
18435;SDS011;9346;52.006;4.720;2022-12-26T05:38:51;10.63;;;4.80;;
18435;SDS011;9346;52.006;4.720;2022-12-26T05:41:20;8.90;;;4.67;;
18435;SDS011;9346;52.006;4.720;2022-12-26T05:43:48;9.77;;;4.53;;
18435;SDS011;9346;52.006;4.720;2022-12-26T05:46:17;8.13;;;4.77;;
18435;SDS011;9346;52.006;4.720;2022-12-26T05:48:44;11.47;;;5.17;;
18435;SDS011;9346;52.006;4.720;2022-12-26T05:51:11;13.03;;;5.37;;
18435;SDS011;9346;52.006;4.720;2022-12-26T05:53:38;12.23;;;5.37;;
18435;SDS011;9346;52.006;4.720;2022-12-26T05:56:07;8.50;;;4.83;;
18435;SDS011;9346;52.006;4.720;2022-12-26T05:58:36;11.53;;;4.90;;
18435;SDS011;9346;52.006;4.720;2022-12-26T06:01:04;9.43;;;5.70;;
18435;SDS011;9346;52.006;4.720;2022-12-26T06:03:34;18.20;;;5.87;;
18435;SDS011;9346;52.006;4.720;2022-12-26T06:06:02;10.37;;;5.47;;
18435;SDS011;9346;52.006;4.720;2022-12-26T06:08:29;8.77;;;4.80;;
18435;SDS011;9346;52.006;4.720;2022-12-26T06:10:56;9.67;;;5.20;;
18435;SDS011;9346;52.006;4.720;2022-12-26T06:13:24;8.63;;;5.27;;
18435;SDS011;9346;52.006;4.720;2022-12-26T06:15:51;10.47;;;5.53;;
18435;SDS011;9346;52.006;4.720;2022-12-26T06:18:18;9.17;;;5.53;;
18435;SDS011;9346;52.006;4.720;2022-12-26T06:20:47;10.30;;;5.23;;
18435;SDS011;9346;52.006;4.720;2022-12-26T06:23:13;7.53;;;4.80;;
18435;SDS011;9346;52.006;4.720;2022-12-26T06:25:40;12.83;;;5.33;;
18435;SDS011;9346;52.006;4.720;2022-12-26T06:28:07;15.67;;;5.13;;
18435;SDS011;9346;52.006;4.720;2022-12-26T06:30:34;9.17;;;5.60;;
18435;SDS011;9346;52.006;4.720;2022-12-26T06:33:01;6.17;;;4.27;;
18435;SDS011;9346;52.006;4.720;2022-12-26T06:35:28;11.30;;;4.87;;
18435;SDS011;9346;52.006;4.720;2022-12-26T06:37:56;8.03;;;4.90;;
18435;SDS011;9346;52.006;4.720;2022-12-26T06:40:24;8.70;;;5.03;;
18435;SDS011;9346;52.006;4.720;2022-12-26T06:42:51;10.40;;;5.23;;
18435;SDS011;9346;52.006;4.720;2022-12-26T06:45:18;10.27;;;4.77;;
18435;SDS011;9346;52.006;4.720;2022-12-26T06:47:44;6.43;;;4.63;;
18435;SDS011;9346;52.006;4.720;2022-12-26T06:50:11;10.20;;;4.10;;
18435;SDS011;9346;52.006;4.720;2022-12-26T06:52:38;8.63;;;4.57;;
18435;SDS011;9346;52.006;4.720;2022-12-26T06:55:08;7.50;;;4.30;;
18435;SDS011;9346;52.006;4.720;2022-12-26T06:57:34;6.97;;;3.63;;
18435;SDS011;9346;52.006;4.720;2022-12-26T07:00:02;15.30;;;4.57;;
18435;SDS011;9346;52.006;4.720;2022-12-26T07:02:29;7.77;;;4.37;;
18435;SDS011;9346;52.006;4.720;2022-12-26T07:04:56;11.10;;;4.40;;
18435;SDS011;9346;52.006;4.720;2022-12-26T07:07:23;7.47;;;3.47;;
18435;SDS011;9346;52.006;4.720;2022-12-26T07:09:50;8.50;;;3.90;;
18435;SDS011;9346;52.006;4.720;2022-12-26T07:12:19;5.90;;;3.83;;
18435;SDS011;9346;52.006;4.720;2022-12-26T07:14:46;7.03;;;3.93;;
18435;SDS011;9346;52.006;4.720;2022-12-26T07:17:13;6.50;;;4.27;;
18435;SDS011;9346;52.006;4.720;2022-12-26T07:19:40;8.17;;;3.07;;
18435;SDS011;9346;52.006;4.720;2022-12-26T07:22:07;6.57;;;4.07;;
18435;SDS011;9346;52.006;4.720;2022-12-26T07:24:34;13.33;;;4.10;;
18435;SDS011;9346;52.006;4.720;2022-12-26T07:27:01;9.57;;;4.07;;
18435;SDS011;9346;52.006;4.720;2022-12-26T07:29:29;7.50;;;4.30;;
18435;SDS011;9346;52.006;4.720;2022-12-26T07:31:56;10.47;;;3.43;;
18435;SDS011;9346;52.006;4.720;2022-12-26T07:34:23;7.10;;;4.07;;
18435;SDS011;9346;52.006;4.720;2022-12-26T07:36:50;16.53;;;4.80;;
18435;SDS011;9346;52.006;4.720;2022-12-26T07:39:17;9.47;;;3.80;;
18435;SDS011;9346;52.006;4.720;2022-12-26T07:41:44;9.63;;;4.03;;
18435;SDS011;9346;52.006;4.720;2022-12-26T07:44:23;14.03;;;4.17;;
18435;SDS011;9346;52.006;4.720;2022-12-26T07:46:52;8.47;;;3.70;;
18435;SDS011;9346;52.006;4.720;2022-12-26T07:49:20;10.07;;;4.00;;
18435;SDS011;9346;52.006;4.720;2022-12-26T07:51:48;10.13;;;4.17;;
18435;SDS011;9346;52.006;4.720;2022-12-26T07:54:15;7.43;;;3.53;;
18435;SDS011;9346;52.006;4.720;2022-12-26T07:56:43;11.47;;;4.63;;
18435;SDS011;9346;52.006;4.720;2022-12-26T07:59:11;5.73;;;3.40;;
18435;SDS011;9346;52.006;4.720;2022-12-26T08:01:39;14.33;;;4.13;;
18435;SDS011;9346;52.006;4.720;2022-12-26T08:04:08;6.33;;;3.63;;
18435;SDS011;9346;52.006;4.720;2022-12-26T08:06:35;10.37;;;3.70;;
18435;SDS011;9346;52.006;4.720;2022-12-26T08:09:02;10.43;;;4.27;;
18435;SDS011;9346;52.006;4.720;2022-12-26T08:11:30;14.30;;;4.17;;
18435;SDS011;9346;52.006;4.720;2022-12-26T08:13:59;8.90;;;3.50;;
18435;SDS011;9346;52.006;4.720;2022-12-26T08:16:26;10.90;;;4.33;;
18435;SDS011;9346;52.006;4.720;2022-12-26T08:18:54;9.43;;;3.73;;
18435;SDS011;9346;52.006;4.720;2022-12-26T08:21:23;14.40;;;3.60;;
18435;SDS011;9346;52.006;4.720;2022-12-26T08:23:50;6.40;;;3.33;;
18435;SDS011;9346;52.006;4.720;2022-12-26T08:26:17;18.10;;;4.10;;
18435;SDS011;9346;52.006;4.720;2022-12-26T08:28:47;10.40;;;3.77;;
18435;SDS011;9346;52.006;4.720;2022-12-26T08:31:15;6.47;;;4.30;;
18435;SDS011;9346;52.006;4.720;2022-12-26T08:33:43;7.17;;;3.50;;
18435;SDS011;9346;52.006;4.720;2022-12-26T08:36:11;5.93;;;4.43;;
18435;SDS011;9346;52.006;4.720;2022-12-26T08:38:42;8.00;;;4.37;;
18435;SDS011;9346;52.006;4.720;2022-12-26T08:41:09;8.23;;;4.37;;
18435;SDS011;9346;52.006;4.720;2022-12-26T08:43:36;10.70;;;4.67;;
18435;SDS011;9346;52.006;4.720;2022-12-26T08:46:04;7.30;;;4.37;;
18435;SDS011;9346;52.006;4.720;2022-12-26T08:48:33;7.60;;;4.17;;
18435;SDS011;9346;52.006;4.720;2022-12-26T08:51:01;6.97;;;4.20;;
18435;SDS011;9346;52.006;4.720;2022-12-26T08:53:31;17.20;;;3.73;;
18435;SDS011;9346;52.006;4.720;2022-12-26T08:56:03;5.87;;;3.70;;
18435;SDS011;9346;52.006;4.720;2022-12-26T08:58:32;9.13;;;3.43;;
18435;SDS011;9346;52.006;4.720;2022-12-26T09:01:06;10.67;;;3.43;;
18435;SDS011;9346;52.006;4.720;2022-12-26T09:03:34;6.00;;;2.20;;
18435;SDS011;9346;52.006;4.720;2022-12-26T09:06:01;4.20;;;1.70;;
18435;SDS011;9346;52.006;4.720;2022-12-26T09:08:28;12.53;;;1.97;;
18435;SDS011;9346;52.006;4.720;2022-12-26T09:10:55;6.83;;;2.70;;
18435;SDS011;9346;52.006;4.720;2022-12-26T09:13:23;6.23;;;1.13;;
18435;SDS011;9346;52.006;4.720;2022-12-26T09:15:50;12.03;;;2.27;;
18435;SDS011;9346;52.006;4.720;2022-12-26T09:18:17;8.47;;;1.50;;
18435;SDS011;9346;52.006;4.720;2022-12-26T09:20:44;5.50;;;1.80;;
18435;SDS011;9346;52.006;4.720;2022-12-26T09:23:11;16.27;;;2.00;;
18435;SDS011;9346;52.006;4.720;2022-12-26T09:25:39;18.23;;;1.80;;
18435;SDS011;9346;52.006;4.720;2022-12-26T09:28:06;11.50;;;1.90;;
18435;SDS011;9346;52.006;4.720;2022-12-26T09:30:35;20.80;;;2.93;;
18435;SDS011;9346;52.006;4.720;2022-12-26T09:33:03;10.53;;;1.83;;
18435;SDS011;9346;52.006;4.720;2022-12-26T09:35:31;6.67;;;1.50;;
18435;SDS011;9346;52.006;4.720;2022-12-26T09:37:58;5.53;;;1.70;;
18435;SDS011;9346;52.006;4.720;2022-12-26T09:40:27;12.33;;;1.80;;
18435;SDS011;9346;52.006;4.720;2022-12-26T09:43:04;8.63;;;1.20;;
18435;SDS011;9346;52.006;4.720;2022-12-26T09:48:32;6.77;;;1.63;;
18435;SDS011;9346;52.006;4.720;2022-12-26T09:51:04;4.57;;;1.33;;
18435;SDS011;9346;52.006;4.720;2022-12-26T09:53:32;9.13;;;1.30;;
18435;SDS011;9346;52.006;4.720;2022-12-26T09:56:03;5.30;;;1.20;;
18435;SDS011;9346;52.006;4.720;2022-12-26T09:58:32;14.33;;;1.80;;
18435;SDS011;9346;52.006;4.720;2022-12-26T10:01:06;11.40;;;2.03;;
18435;SDS011;9346;52.006;4.720;2022-12-26T10:03:36;5.93;;;1.03;;
18435;SDS011;9346;52.006;4.720;2022-12-26T10:06:09;10.70;;;1.70;;
18435;SDS011;9346;52.006;4.720;2022-12-26T10:08:42;4.33;;;1.33;;
18435;SDS011;9346;52.006;4.720;2022-12-26T10:11:26;8.93;;;1.97;;
18435;SDS011;9346;52.006;4.720;2022-12-26T10:14:01;9.40;;;1.57;;
18435;SDS011;9346;52.006;4.720;2022-12-26T10:16:39;1.77;;;1.03;;
18435;SDS011;9346;52.006;4.720;2022-12-26T10:19:18;6.90;;;1.77;;
18435;SDS011;9346;52.006;4.720;2022-12-26T10:21:57;14.17;;;1.77;;
18435;SDS011;9346;52.006;4.720;2022-12-26T10:24:34;16.33;;;2.07;;
18435;SDS011;9346;52.006;4.720;2022-12-26T10:27:06;5.73;;;1.23;;
18435;SDS011;9346;52.006;4.720;2022-12-26T10:29:40;9.37;;;1.57;;
18435;SDS011;9346;52.006;4.720;2022-12-26T10:32:11;5.40;;;1.67;;
18435;SDS011;9346;52.006;4.720;2022-12-26T10:34:43;8.70;;;1.37;;
18435;SDS011;9346;52.006;4.720;2022-12-26T10:37:14;14.83;;;1.90;;
18435;SDS011;9346;52.006;4.720;2022-12-26T10:39:50;8.60;;;1.80;;
18435;SDS011;9346;52.006;4.720;2022-12-26T10:42:21;4.20;;;1.23;;
18435;SDS011;9346;52.006;4.720;2022-12-26T10:44:51;3.67;;;1.40;;
18435;SDS011;9346;52.006;4.720;2022-12-26T10:47:22;5.90;;;1.67;;
18435;SDS011;9346;52.006;4.720;2022-12-26T10:49:53;3.90;;;1.00;;
18435;SDS011;9346;52.006;4.720;2022-12-26T10:52:25;3.07;;;1.23;;
18435;SDS011;9346;52.006;4.720;2022-12-26T10:54:56;2.40;;;1.03;;
18435;SDS011;9346;52.006;4.720;2022-12-26T10:57:25;4.70;;;1.73;;
18435;SDS011;9346;52.006;4.720;2022-12-26T10:59:54;17.87;;;2.30;;
18435;SDS011;9346;52.006;4.720;2022-12-26T11:02:24;8.30;;;1.33;;
18435;SDS011;9346;52.006;4.720;2022-12-26T11:05:03;9.93;;;1.67;;
18435;SDS011;9346;52.006;4.720;2022-12-26T11:07:32;5.23;;;1.70;;
18435;SDS011;9346;52.006;4.720;2022-12-26T11:10:03;6.93;;;1.37;;
18435;SDS011;9346;52.006;4.720;2022-12-26T11:12:40;3.37;;;1.87;;
18435;SDS011;9346;52.006;4.720;2022-12-26T11:15:16;5.43;;;1.53;;
18435;SDS011;9346;52.006;4.720;2022-12-26T11:17:51;2.67;;;1.57;;
18435;SDS011;9346;52.006;4.720;2022-12-26T11:20:27;4.40;;;1.20;;
18435;SDS011;9346;52.006;4.720;2022-12-26T11:23:11;2.97;;;1.00;;
18435;SDS011;9346;52.006;4.720;2022-12-26T11:25:47;1.30;;;0.93;;
18435;SDS011;9346;52.006;4.720;2022-12-26T11:28:21;8.50;;;1.73;;
18435;SDS011;9346;52.006;4.720;2022-12-26T11:30:51;4.77;;;1.10;;
18435;SDS011;9346;52.006;4.720;2022-12-26T11:33:24;4.20;;;1.00;;
18435;SDS011;9346;52.006;4.720;2022-12-26T11:35:56;3.87;;;1.10;;
18435;SDS011;9346;52.006;4.720;2022-12-26T11:38:32;11.37;;;1.50;;
18435;SDS011;9346;52.006;4.720;2022-12-26T11:41:08;1.30;;;0.80;;
18435;SDS011;9346;52.006;4.720;2022-12-26T11:43:54;1.37;;;0.87;;
18435;SDS011;9346;52.006;4.720;2022-12-26T11:46:29;3.70;;;1.20;;
18435;SDS011;9346;52.006;4.720;2022-12-26T11:49:00;9.20;;;1.50;;
18435;SDS011;9346;52.006;4.720;2022-12-26T11:51:33;6.53;;;1.60;;
18435;SDS011;9346;52.006;4.720;2022-12-26T11:56:46;6.27;;;1.73;;
18435;SDS011;9346;52.006;4.720;2022-12-26T11:59:16;4.53;;;1.53;;
18435;SDS011;9346;52.006;4.720;2022-12-26T12:01:44;9.93;;;1.30;;
18435;SDS011;9346;52.006;4.720;2022-12-26T12:04:16;2.83;;;1.00;;
18435;SDS011;9346;52.006;4.720;2022-12-26T12:06:46;4.00;;;1.10;;
18435;SDS011;9346;52.006;4.720;2022-12-26T12:09:28;4.17;;;1.00;;
18435;SDS011;9346;52.006;4.720;2022-12-26T12:12:08;3.30;;;0.90;;
18435;SDS011;9346;52.006;4.720;2022-12-26T12:14:45;0.60;;;0.60;;
18435;SDS011;9346;52.006;4.720;2022-12-26T12:17:25;4.00;;;0.83;;
18435;SDS011;9346;52.006;4.720;2022-12-26T12:23:00;1.33;;;0.50;;
18435;SDS011;9346;52.006;4.720;2022-12-26T12:25:46;0.97;;;0.67;;
18435;SDS011;9346;52.006;4.720;2022-12-26T12:31:27;5.77;;;0.73;;
18435;SDS011;9346;52.006;4.720;2022-12-26T12:34:03;3.17;;;1.03;;
18435;SDS011;9346;52.006;4.720;2022-12-26T12:36:43;5.13;;;0.97;;
18435;SDS011;9346;52.006;4.720;2022-12-26T12:39:26;3.43;;;0.93;;
18435;SDS011;9346;52.006;4.720;2022-12-26T12:42:07;10.63;;;1.80;;
18435;SDS011;9346;52.006;4.720;2022-12-26T12:44:52;3.87;;;1.53;;
18435;SDS011;9346;52.006;4.720;2022-12-26T12:47:31;2.90;;;1.33;;
18435;SDS011;9346;52.006;4.720;2022-12-26T12:50:12;2.90;;;1.40;;
18435;SDS011;9346;52.006;4.720;2022-12-26T12:52:51;5.73;;;1.77;;
18435;SDS011;9346;52.006;4.720;2022-12-26T12:55:32;2.47;;;0.70;;
18435;SDS011;9346;52.006;4.720;2022-12-26T12:58:12;2.07;;;1.30;;
18435;SDS011;9346;52.006;4.720;2022-12-26T13:00:48;3.23;;;1.70;;
18435;SDS011;9346;52.006;4.720;2022-12-26T13:03:22;5.83;;;1.37;;
18435;SDS011;9346;52.006;4.720;2022-12-26T13:05:58;2.27;;;0.80;;
18435;SDS011;9346;52.006;4.720;2022-12-26T13:08:34;3.43;;;1.00;;
18435;SDS011;9346;52.006;4.720;2022-12-26T13:11:05;2.40;;;0.90;;
18435;SDS011;9346;52.006;4.720;2022-12-26T13:13:37;7.87;;;1.10;;
18435;SDS011;9346;52.006;4.720;2022-12-26T13:16:10;3.87;;;0.70;;
18435;SDS011;9346;52.006;4.720;2022-12-26T13:18:41;6.57;;;1.23;;
18435;SDS011;9346;52.006;4.720;2022-12-26T13:21:13;9.93;;;1.00;;
18435;SDS011;9346;52.006;4.720;2022-12-26T13:23:44;13.27;;;1.20;;
18435;SDS011;9346;52.006;4.720;2022-12-26T13:26:34;3.13;;;0.80;;
18435;SDS011;9346;52.006;4.720;2022-12-26T13:29:05;7.30;;;0.93;;
18435;SDS011;9346;52.006;4.720;2022-12-26T13:31:38;6.07;;;0.70;;
18435;SDS011;9346;52.006;4.720;2022-12-26T13:34:07;6.33;;;1.30;;
18435;SDS011;9346;52.006;4.720;2022-12-26T13:36:38;3.30;;;0.70;;
18435;SDS011;9346;52.006;4.720;2022-12-26T13:42:00;1.53;;;1.07;;
18435;SDS011;9346;52.006;4.720;2022-12-26T13:54:15;8.27;;;1.27;;
18435;SDS011;9346;52.006;4.720;2022-12-26T14:05:53;7.30;;;0.83;;
18435;SDS011;9346;52.006;4.720;2022-12-26T14:08:35;3.50;;;1.20;;
18435;SDS011;9346;52.006;4.720;2022-12-26T14:11:14;5.00;;;1.17;;
18435;SDS011;9346;52.006;4.720;2022-12-26T14:14:00;4.80;;;1.60;;
18435;SDS011;9346;52.006;4.720;2022-12-26T14:16:36;5.10;;;0.67;;
18435;SDS011;9346;52.006;4.720;2022-12-26T14:19:15;2.57;;;0.87;;
18435;SDS011;9346;52.006;4.720;2022-12-26T14:21:53;8.10;;;0.80;;
18435;SDS011;9346;52.006;4.720;2022-12-26T14:24:30;5.73;;;1.13;;
18435;SDS011;9346;52.006;4.720;2022-12-26T14:27:16;2.07;;;0.73;;
18435;SDS011;9346;52.006;4.720;2022-12-26T14:29:54;7.07;;;1.10;;
18435;SDS011;9346;52.006;4.720;2022-12-26T14:32:35;2.83;;;0.90;;
18435;SDS011;9346;52.006;4.720;2022-12-26T14:35:08;4.07;;;0.77;;
18435;SDS011;9346;52.006;4.720;2022-12-26T14:37:47;1.00;;;0.63;;
18435;SDS011;9346;52.006;4.720;2022-12-26T14:40:27;5.40;;;1.03;;
18435;SDS011;9346;52.006;4.720;2022-12-26T14:45:49;12.50;;;1.77;;
18435;SDS011;9346;52.006;4.720;2022-12-26T15:03:17;6.63;;;0.77;;
18435;SDS011;9346;52.006;4.720;2022-12-26T15:06:00;2.17;;;0.80;;
18435;SDS011;9346;52.006;4.720;2022-12-26T15:09:00;4.17;;;2.03;;
18435;SDS011;9346;52.006;4.720;2022-12-26T15:11:44;2.00;;;1.03;;
18435;SDS011;9346;52.006;4.720;2022-12-26T15:17:37;4.13;;;1.13;;
18435;SDS011;9346;52.006;4.720;2022-12-26T15:20:15;3.30;;;1.10;;
18435;SDS011;9346;52.006;4.720;2022-12-26T15:32:26;5.50;;;1.03;;
18435;SDS011;9346;52.006;4.720;2022-12-26T15:35:10;3.90;;;1.50;;
18435;SDS011;9346;52.006;4.720;2022-12-26T15:40:41;5.87;;;0.83;;
18435;SDS011;9346;52.006;4.720;2022-12-26T15:43:21;2.63;;;1.10;;
18435;SDS011;9346;52.006;4.720;2022-12-26T15:45:59;2.93;;;1.23;;
18435;SDS011;9346;52.006;4.720;2022-12-26T15:48:39;2.90;;;1.43;;
18435;SDS011;9346;52.006;4.720;2022-12-26T15:51:17;3.50;;;1.10;;
18435;SDS011;9346;52.006;4.720;2022-12-26T15:54:11;1.97;;;1.00;;
18435;SDS011;9346;52.006;4.720;2022-12-26T15:56:51;4.13;;;1.00;;
18435;SDS011;9346;52.006;4.720;2022-12-26T15:59:39;6.43;;;1.20;;
18435;SDS011;9346;52.006;4.720;2022-12-26T16:02:31;3.03;;;1.27;;
18435;SDS011;9346;52.006;4.720;2022-12-26T16:05:10;5.63;;;1.30;;
18435;SDS011;9346;52.006;4.720;2022-12-26T16:07:51;6.37;;;1.57;;
18435;SDS011;9346;52.006;4.720;2022-12-26T16:10:30;7.90;;;1.33;;
18435;SDS011;9346;52.006;4.720;2022-12-26T16:13:02;3.83;;;1.07;;
18435;SDS011;9346;52.006;4.720;2022-12-26T16:15:43;7.30;;;1.33;;
18435;SDS011;9346;52.006;4.720;2022-12-26T16:18:12;8.60;;;2.07;;
18435;SDS011;9346;52.006;4.720;2022-12-26T16:20:41;4.27;;;1.13;;
18435;SDS011;9346;52.006;4.720;2022-12-26T16:23:27;2.07;;;1.30;;
18435;SDS011;9346;52.006;4.720;2022-12-26T16:25:57;2.57;;;1.17;;
18435;SDS011;9346;52.006;4.720;2022-12-26T16:28:26;3.77;;;2.17;;
18435;SDS011;9346;52.006;4.720;2022-12-26T16:30:57;5.23;;;1.80;;
18435;SDS011;9346;52.006;4.720;2022-12-26T16:33:27;3.40;;;1.73;;
18435;SDS011;9346;52.006;4.720;2022-12-26T16:35:56;11.87;;;2.57;;
18435;SDS011;9346;52.006;4.720;2022-12-26T16:38:24;3.73;;;1.27;;
18435;SDS011;9346;52.006;4.720;2022-12-26T16:40:54;7.43;;;1.60;;
18435;SDS011;9346;52.006;4.720;2022-12-26T16:43:23;3.60;;;1.47;;